This is the latest recevied weather packets stored in our database for station/object N4AR. If no packets are shown the sender has not sent any weather packets the latest 1 day(s).
| Time | Temp. | Humidity | Pressure | Rain* | Wind** | Luminosity | Snow |
|---|---|---|---|---|---|---|---|
| 1778029121 | 23.33° C | 55% | 1014.2 hPa | 0 mm | - | 0 W/m² | - |
| 1778028513 | 23.33° C | 53% | 1014 hPa | 0 mm | - | 0 W/m² | - |
| 1778027907 | 23.33° C | 52% | 1013.9 hPa | 0 mm | - | 0 W/m² | - |
| 1778027300 | 23.89° C | 50% | 1013.9 hPa | 0 mm | - | 0 W/m² | - |
| 1778020636 | 26.67° C | 40% | 1013.1 hPa | 0 mm | - | 137 W/m² | - |
| 1778018815 | 27.22° C | 38% | 1013.5 hPa | 0 mm | - | 89 W/m² | - |
| 1778018210 | 27.22° C | 38% | 1013.4 hPa | 0 mm | - | 102 W/m² | - |
| 1778017908 | 27.78° C | 36% | 1013.3 hPa | 0 mm | - | 84 W/m² | - |
| 1778013970 | 30.56° C | 29% | 1013.1 hPa | 0 mm | - | 583 W/m² | - |
| 1778013668 | 30.56° C | 29% | 1012.9 hPa | 0 mm | - | 585 W/m² | - |
| 1778012150 | 31.11° C | 27% | 1013.1 hPa | 0 mm | - | 670 W/m² | - |
| 1778011848 | 31.11° C | 28% | 1013.3 hPa | 0 mm | - | 683 W/m² | - |
| 1778011545 | 31.11° C | 28% | 1013.5 hPa | 0 mm | - | 695 W/m² | - |
| 1778010938 | 31.11° C | 29% | 1013.3 hPa | 0 mm | - | 721 W/m² | - |
| 1778010636 | 31.11° C | 28% | 1013.6 hPa | 0 mm | - | 738 W/m² | - |
| 1778010333 | 31.67° C | 27% | 1013.6 hPa | 0 mm | - | 745 W/m² | - |
| 1778010028 | 31.11° C | 29% | 1013.6 hPa | 0 mm | - | 752 W/m² | - |
| 1778009423 | 31.67° C | 28% | 1013.9 hPa | 0 mm | - | 778 W/m² | - |
| 1778007302 | 30.56° C | 28% | 1014.4 hPa | 0 mm | - | 842 W/m² | - |
| 1778006998 | 30.56° C | 30% | 1014.6 hPa | 0 mm | - | 867 W/m² | - |
| 1778005785 | 30.56° C | 29% | 1014.7 hPa | 0 mm | - | 888 W/m² | - |
| 1778004876 | 30.56° C | 29% | 1014.7 hPa | 0 mm | - | 899 W/m² | - |
| 1778004269 | 30.56° C | 29% | 1014.8 hPa | 0 mm | - | 904 W/m² | - |
| 1778003662 | 30.56° C | 28% | 1014.9 hPa | 0 mm | - | 909 W/m² | - |
| 1778003056 | 30° C | 31% | 1014.8 hPa | 0 mm | - | 904 W/m² | - |
* Rain latest hour (hover to see other rain measurements)
** Current wind speed in m/s (hover to see current wind gust speed)